createdAt,value
2018-12-19T00:01:54.901Z,38.20
2018-12-19T00:04:22.473Z,37.90
2018-12-19T00:06:50.030Z,41.00
2018-12-19T00:09:18.630Z,41.07
2018-12-19T00:11:46.154Z,34.47
2018-12-19T00:14:13.704Z,39.83
2018-12-19T00:16:41.417Z,41.23
2018-12-19T00:19:08.957Z,35.77
2018-12-19T00:21:36.529Z,36.73
2018-12-19T00:24:04.153Z,38.83
2018-12-19T00:26:31.733Z,38.50
2018-12-19T00:28:59.277Z,40.80
2018-12-19T00:31:26.915Z,38.03
2018-12-19T00:33:54.450Z,42.17
2018-12-19T00:36:22.014Z,38.97
2018-12-19T00:38:49.785Z,42.13
2018-12-19T00:41:25.022Z,40.00
2018-12-19T00:43:52.807Z,38.87
2018-12-19T00:46:20.372Z,42.63
2018-12-19T00:48:47.938Z,37.67
2018-12-19T00:51:15.708Z,38.17
2018-12-19T00:53:43.297Z,36.80
2018-12-19T00:56:10.882Z,38.77
2018-12-19T00:58:38.461Z,32.67
2018-12-19T01:01:06.015Z,34.00
2018-12-19T01:03:33.575Z,31.57
2018-12-19T01:06:01.192Z,30.47
2018-12-19T01:08:28.735Z,33.33
2018-12-19T01:11:17.981Z,32.53
2018-12-19T01:13:45.536Z,30.57
2018-12-19T01:16:13.079Z,34.30
2018-12-19T01:18:40.757Z,30.03
2018-12-19T01:21:08.295Z,33.53
2018-12-19T01:23:35.840Z,32.30
2018-12-19T01:26:03.696Z,32.87
2018-12-19T01:28:31.224Z,34.17
2018-12-19T01:30:58.765Z,33.03
2018-12-19T01:33:26.734Z,32.60
2018-12-19T01:35:54.300Z,32.73
2018-12-19T01:38:21.850Z,33.20
2018-12-19T01:40:49.536Z,32.20
2018-12-19T01:43:17.093Z,30.97
2018-12-19T01:45:44.674Z,29.73
2018-12-19T01:48:12.339Z,37.27
2018-12-19T01:50:39.953Z,32.17
2018-12-19T01:53:07.513Z,33.33
2018-12-19T01:55:35.220Z,40.73
2018-12-19T01:58:02.757Z,35.17
2018-12-19T02:00:31.188Z,31.67
2018-12-19T02:02:59.148Z,27.90
2018-12-19T02:05:26.685Z,52.07
2018-12-19T02:07:54.253Z,43.60
2018-12-19T02:10:21.965Z,32.20
2018-12-19T02:12:49.505Z,30.93
2018-12-19T02:15:17.044Z,31.77
2018-12-19T02:17:44.659Z,73.83
2018-12-19T02:20:12.193Z,54.87
2018-12-19T02:22:39.754Z,83.87
2018-12-19T02:25:07.636Z,63.40
2018-12-19T02:27:35.181Z,68.53
2018-12-19T02:30:02.766Z,40.03
2018-12-19T02:32:30.360Z,63.77
2018-12-19T02:34:57.916Z,75.77
2018-12-19T02:37:25.445Z,37.90
2018-12-19T02:39:53.190Z,86.67
2018-12-19T02:42:20.734Z,74.07
2018-12-19T02:44:48.274Z,93.47
2018-12-19T02:47:16.195Z,75.03
2018-12-19T02:49:43.739Z,97.67
2018-12-19T02:52:11.277Z,79.67
2018-12-19T02:54:39.272Z,67.80
2018-12-19T02:57:06.822Z,109.67
2018-12-19T02:59:34.354Z,116.77
2018-12-19T03:02:02.061Z,87.70
2018-12-19T03:04:29.613Z,78.10
2018-12-19T03:06:57.173Z,76.60
2018-12-19T03:09:24.810Z,70.97
2018-12-19T03:11:52.370Z,83.87
2018-12-19T03:14:19.917Z,100.90
2018-12-19T03:16:47.697Z,63.80
2018-12-19T03:19:15.268Z,65.60
2018-12-19T03:21:42.827Z,52.40
2018-12-19T03:24:10.410Z,55.00
2018-12-19T03:26:37.945Z,76.50
2018-12-19T03:29:05.497Z,148.17
2018-12-19T03:31:33.232Z,34.80
2018-12-19T03:34:00.782Z,31.13
2018-12-19T03:36:28.321Z,114.13
2018-12-19T03:38:56.033Z,75.50
2018-12-19T03:41:23.584Z,45.20
2018-12-19T03:43:51.154Z,63.13
2018-12-19T03:46:18.881Z,44.93
2018-12-19T03:48:52.073Z,50.80
2018-12-19T03:51:27.228Z,85.93
2018-12-19T03:53:54.793Z,53.67
2018-12-19T03:56:22.309Z,52.67
2018-12-19T03:58:50.023Z,49.17
2018-12-19T04:01:17.572Z,60.93
2018-12-19T04:03:45.142Z,43.43
2018-12-19T04:06:12.760Z,58.03
2018-12-19T04:08:40.338Z,34.43
2018-12-19T04:11:08.880Z,63.90
2018-12-19T04:13:36.671Z,74.53
2018-12-19T04:16:04.277Z,56.07
2018-12-19T04:18:31.798Z,68.17
2018-12-19T04:20:59.406Z,57.60
2018-12-19T04:23:26.965Z,53.10
2018-12-19T04:25:54.542Z,51.30
2018-12-19T04:28:22.210Z,52.20
2018-12-19T04:30:49.782Z,47.27
2018-12-19T04:33:17.329Z,49.77
2018-12-19T04:35:45.082Z,63.47
2018-12-19T04:38:12.681Z,173.60
2018-12-19T04:40:40.254Z,92.73
2018-12-19T04:43:08.621Z,54.37
2018-12-19T04:45:36.162Z,47.73
2018-12-19T04:48:03.702Z,43.67
2018-12-19T04:50:31.434Z,49.00
2018-12-19T04:52:58.981Z,60.20
2018-12-19T04:55:26.543Z,47.53
2018-12-19T04:57:54.413Z,130.97
2018-12-19T05:00:22.057Z,172.87
2018-12-19T05:02:49.595Z,155.93
2018-12-19T05:05:17.345Z,186.53
2018-12-19T05:07:44.963Z,151.83
2018-12-19T05:10:12.685Z,147.23
2018-12-19T05:12:40.220Z,159.23
2018-12-19T05:15:07.794Z,262.70
2018-12-19T05:17:35.386Z,209.23
2018-12-19T05:20:04.328Z,208.90
2018-12-19T05:22:31.857Z,229.17
2018-12-19T05:24:59.414Z,252.23
2018-12-19T05:27:27.040Z,256.37
2018-12-19T05:29:54.578Z,199.30
2018-12-19T05:32:22.143Z,163.03
2018-12-19T05:34:49.714Z,202.17
2018-12-19T05:37:17.278Z,198.87
2018-12-19T05:39:44.869Z,136.37
2018-12-19T05:42:12.500Z,125.17
2018-12-19T05:44:40.041Z,105.50
2018-12-19T05:47:08.539Z,98.97
2018-12-19T05:49:35.598Z,134.23
2018-12-19T05:52:03.166Z,133.13
2018-12-19T05:54:30.749Z,146.77
2018-12-19T05:56:58.363Z,164.07
2018-12-19T05:59:25.925Z,159.33
2018-12-19T06:01:53.471Z,153.87
2018-12-19T06:04:21.091Z,155.17
2018-12-19T06:06:48.624Z,148.67
2018-12-19T06:09:17.017Z,139.53
2018-12-19T06:11:44.745Z,153.27
2018-12-19T06:14:12.336Z,188.17
2018-12-19T06:16:39.874Z,128.33
2018-12-19T06:19:07.483Z,47.67
2018-12-19T06:21:35.102Z,38.93
2018-12-19T06:24:02.648Z,36.03
2018-12-19T06:26:30.398Z,32.53
2018-12-19T06:28:57.953Z,32.60
2018-12-19T06:31:25.476Z,37.63
2018-12-19T06:33:53.462Z,34.13
2018-12-19T06:36:21.049Z,28.93
2018-12-19T06:38:48.590Z,36.80
2018-12-19T06:41:16.357Z,99.13
2018-12-19T06:43:43.914Z,115.90
2018-12-19T06:46:11.520Z,85.43
2018-12-19T06:48:39.137Z,67.73
2018-12-19T06:51:06.750Z,94.23
2018-12-19T06:53:34.322Z,57.80
2018-12-19T06:56:02.042Z,44.90
2018-12-19T06:58:29.619Z,96.30
2018-12-19T07:00:57.209Z,48.80
2018-12-19T07:03:25.191Z,45.30
2018-12-19T07:05:52.765Z,50.10
2018-12-19T07:08:20.317Z,57.27
2018-12-19T07:10:48.246Z,69.77
2018-12-19T07:13:15.770Z,48.53
2018-12-19T07:15:43.313Z,36.57
2018-12-19T07:18:10.885Z,39.77
2018-12-19T07:20:38.477Z,39.10
2018-12-19T07:23:06.029Z,39.27
2018-12-19T07:25:33.731Z,38.37
2018-12-19T07:28:01.333Z,30.17
2018-12-19T07:30:28.894Z,32.00
2018-12-19T07:32:56.798Z,33.73
2018-12-19T07:35:24.349Z,33.13
2018-12-19T07:37:51.897Z,36.23
2018-12-19T07:40:19.531Z,37.37
2018-12-19T07:42:47.078Z,27.93
2018-12-19T07:45:14.606Z,33.37
2018-12-19T07:47:42.530Z,33.20
2018-12-19T07:50:10.110Z,29.90
2018-12-19T07:52:37.652Z,29.43
2018-12-19T07:55:05.393Z,35.37
2018-12-19T07:57:32.968Z,31.00
2018-12-19T08:00:00.537Z,33.47
2018-12-19T08:02:28.197Z,31.80
2018-12-19T08:04:55.792Z,31.03
2018-12-19T08:07:23.376Z,38.07
2018-12-19T08:09:51.169Z,29.80
2018-12-19T08:12:18.763Z,36.33
2018-12-19T08:14:46.332Z,34.67
2018-12-19T08:17:14.368Z,39.73
2018-12-19T08:19:59.441Z,41.47
2018-12-19T08:22:27.293Z,40.10
2018-12-19T08:24:54.824Z,44.13
2018-12-19T08:27:22.397Z,47.33
2018-12-19T08:29:50.023Z,103.63
2018-12-19T08:32:17.584Z,43.10
2018-12-19T08:34:45.150Z,37.17
2018-12-19T08:37:12.877Z,41.50
2018-12-19T08:39:40.477Z,42.27
2018-12-19T08:42:08.090Z,44.83
2018-12-19T08:44:35.830Z,33.27
2018-12-19T08:47:03.440Z,29.93
2018-12-19T08:49:31.026Z,32.23
2018-12-19T08:51:58.740Z,47.17
2018-12-19T08:54:26.291Z,32.43
2018-12-19T08:56:53.854Z,30.10
2018-12-19T08:59:21.578Z,26.50
2018-12-19T09:01:49.213Z,30.67
2018-12-19T09:04:16.822Z,66.80
2018-12-19T09:06:44.663Z,246.50
2018-12-19T09:09:12.239Z,75.10
2018-12-19T09:11:39.841Z,97.93
2018-12-19T09:14:07.450Z,55.53
2018-12-19T09:16:35.037Z,64.33
2018-12-19T09:19:02.617Z,57.97
2018-12-19T09:21:30.253Z,57.00
2018-12-19T09:23:58.163Z,28.37
2018-12-19T09:26:25.848Z,52.67
2018-12-19T09:28:53.573Z,50.53
2018-12-19T09:31:23.170Z,40.83
2018-12-19T09:33:51.602Z,32.77
2018-12-19T09:36:19.576Z,32.43
2018-12-19T09:38:47.143Z,32.30
2018-12-19T09:41:14.731Z,43.00
2018-12-19T09:43:42.351Z,33.27
2018-12-19T09:46:09.953Z,27.43
2018-12-19T09:48:37.537Z,37.37
2018-12-19T09:51:13.342Z,44.13
2018-12-19T09:53:41.477Z,26.73
2018-12-19T09:56:09.093Z,50.37
2018-12-19T09:58:37.070Z,33.57
2018-12-19T10:01:05.508Z,38.80
2018-12-19T10:03:32.400Z,31.77
2018-12-19T10:06:02.272Z,34.83
2018-12-19T10:08:30.116Z,38.57
2018-12-19T10:11:02.057Z,41.40
2018-12-19T10:13:29.936Z,39.67
2018-12-19T10:15:57.949Z,40.83
2018-12-19T10:18:26.261Z,29.53
2018-12-19T10:20:57.660Z,30.03
2018-12-19T10:23:25.537Z,30.43
2018-12-19T10:26:12.926Z,27.73
2018-12-19T10:28:40.638Z,31.77
2018-12-19T10:31:08.322Z,31.63
2018-12-19T10:33:35.999Z,26.33
2018-12-19T10:36:04.589Z,33.20
2018-12-19T10:38:32.174Z,32.23
2018-12-19T10:40:59.802Z,31.13
2018-12-19T10:43:27.548Z,30.50
2018-12-19T10:45:55.241Z,29.90
2018-12-19T10:48:23.166Z,29.00
2018-12-19T10:50:52.359Z,30.37
2018-12-19T10:53:18.589Z,36.67
2018-12-19T10:55:46.268Z,31.57
2018-12-19T10:58:14.003Z,29.73
2018-12-19T11:00:46.993Z,35.87
2018-12-19T11:03:14.732Z,31.47
2018-12-19T11:05:42.344Z,33.97
2018-12-19T11:08:10.043Z,46.77
2018-12-19T11:10:39.627Z,44.93
2018-12-19T11:13:09.203Z,58.47
2018-12-19T11:15:36.808Z,41.30
2018-12-19T11:18:04.865Z,30.30
2018-12-19T11:20:33.208Z,29.00
2018-12-19T11:23:02.010Z,27.70
2018-12-19T11:25:29.767Z,25.70
2018-12-19T11:27:58.492Z,29.10
2018-12-19T11:30:26.086Z,27.17
2018-12-19T11:32:53.772Z,30.33
2018-12-19T11:35:21.749Z,30.00
2018-12-19T11:37:50.190Z,29.50
2018-12-19T11:40:18.423Z,29.53
2018-12-19T11:42:46.270Z,31.57
2018-12-19T11:45:13.945Z,33.87
2018-12-19T11:47:41.588Z,30.00
2018-12-19T11:50:09.370Z,29.87
2018-12-19T11:52:36.950Z,31.13
2018-12-19T11:55:04.948Z,32.83
2018-12-19T11:57:32.539Z,34.70
2018-12-19T12:00:00.130Z,31.47
2018-12-19T12:02:27.786Z,32.43
2018-12-19T12:04:56.104Z,37.93
2018-12-19T12:07:23.917Z,34.80
2018-12-19T12:09:52.359Z,37.90
2018-12-19T12:12:19.929Z,28.27
2018-12-19T12:14:47.789Z,27.27
2018-12-19T12:17:15.685Z,27.23
2018-12-19T12:19:43.305Z,36.60
2018-12-19T12:22:11.175Z,47.13
2018-12-19T12:24:38.852Z,30.10
2018-12-19T12:27:06.468Z,31.57
2018-12-19T12:29:34.135Z,40.67
2018-12-19T12:32:02.826Z,46.47
2018-12-19T12:34:31.209Z,38.10
2018-12-19T12:36:58.897Z,23.70
2018-12-19T12:39:26.937Z,27.90
2018-12-19T12:41:54.531Z,26.93
2018-12-19T12:44:22.104Z,24.40
2018-12-19T12:46:49.826Z,32.67
2018-12-19T12:49:17.377Z,25.17
2018-12-19T12:51:45.008Z,22.83
2018-12-19T12:54:12.847Z,19.80
2018-12-19T12:56:40.472Z,27.30
2018-12-19T12:59:08.068Z,26.80
2018-12-19T13:01:37.667Z,27.07
2018-12-19T13:04:05.308Z,20.33
2018-12-19T13:06:32.921Z,25.80
2018-12-19T13:09:00.773Z,31.63
2018-12-19T13:11:29.168Z,25.90
2018-12-19T13:13:56.763Z,29.47
2018-12-19T13:16:24.465Z,25.77
2018-12-19T13:18:52.064Z,26.70
2018-12-19T13:21:19.695Z,27.00
2018-12-19T13:23:47.544Z,26.57
2018-12-19T13:26:15.414Z,21.53
2018-12-19T13:28:42.986Z,33.87
2018-12-19T13:31:10.705Z,21.87
2018-12-19T13:33:38.344Z,28.63
2018-12-19T13:36:06.666Z,26.87
2018-12-19T13:38:34.392Z,22.73
2018-12-19T13:41:02.012Z,32.40
2018-12-19T13:43:29.588Z,28.23
2018-12-19T13:45:57.865Z,26.07
2018-12-19T13:48:26.412Z,31.57
2018-12-19T13:50:54.047Z,31.67
2018-12-19T13:53:21.730Z,28.17
2018-12-19T13:55:49.320Z,30.47
2018-12-19T13:58:16.921Z,38.83
2018-12-19T14:00:44.802Z,40.70
2018-12-19T14:03:12.950Z,39.07
2018-12-19T14:05:40.537Z,31.07
2018-12-19T14:08:08.197Z,71.40
2018-12-19T14:10:36.463Z,72.37
2018-12-19T14:13:04.389Z,55.70
2018-12-19T14:15:32.125Z,52.97
2018-12-19T14:17:59.789Z,43.40
2018-12-19T14:20:27.343Z,40.77
2018-12-19T14:22:55.059Z,98.73
2018-12-19T14:25:22.707Z,69.00
2018-12-19T14:27:50.572Z,68.20
2018-12-19T14:30:18.242Z,63.73
2018-12-19T14:32:45.802Z,97.13
2018-12-19T14:35:13.423Z,98.60
2018-12-19T14:37:41.152Z,85.63
2018-12-19T14:40:08.758Z,96.07
2018-12-19T14:42:36.362Z,98.40
2018-12-19T14:45:05.062Z,113.57
2018-12-19T14:47:32.679Z,105.43
2018-12-19T14:50:00.247Z,155.10
2018-12-19T14:52:27.883Z,150.37
2018-12-19T14:54:56.350Z,139.83
2018-12-19T14:57:23.935Z,127.77
2018-12-19T14:59:52.098Z,240.67
2018-12-19T15:02:20.680Z,128.63
2018-12-19T15:04:48.949Z,78.53
2018-12-19T15:07:15.989Z,75.43
2018-12-19T15:09:43.566Z,68.23
2018-12-19T15:12:11.162Z,86.67
2018-12-19T15:14:39.602Z,94.27
2018-12-19T15:17:13.690Z,78.17
2018-12-19T15:19:34.929Z,72.47
2018-12-19T15:22:02.970Z,75.40
2018-12-19T15:24:30.530Z,79.10
2018-12-19T15:26:58.128Z,84.23
2018-12-19T15:29:26.537Z,109.07
2018-12-19T15:31:54.105Z,190.67
2018-12-19T15:34:21.781Z,153.40
2018-12-19T15:36:49.532Z,140.27
2018-12-19T15:39:17.128Z,238.50
2018-12-19T15:41:44.969Z,155.57
2018-12-19T15:44:13.361Z,219.07
2018-12-19T15:46:40.976Z,193.43
2018-12-19T15:49:08.540Z,358.10
2018-12-19T15:51:36.446Z,311.00
2018-12-19T15:54:04.034Z,192.70
2018-12-19T15:56:31.573Z,272.07
2018-12-19T15:59:01.004Z,311.80
2018-12-19T16:01:28.812Z,241.37
2018-12-19T16:03:56.366Z,227.60
2018-12-19T16:06:25.068Z,223.33
2018-12-19T16:08:52.649Z,223.43
2018-12-19T16:11:20.189Z,222.70
2018-12-19T16:13:47.904Z,229.43
2018-12-19T16:16:15.514Z,245.33
2018-12-19T16:18:43.272Z,315.47
2018-12-19T16:21:11.009Z,401.87
2018-12-19T16:23:38.579Z,631.23
2018-12-19T16:26:06.118Z,391.17
2018-12-19T16:28:40.887Z,295.07
2018-12-19T16:31:09.097Z,280.60
2018-12-19T16:33:36.686Z,314.80
2018-12-19T16:36:04.311Z,564.73
2018-12-19T16:38:31.859Z,309.57
2018-12-19T16:40:59.793Z,281.27
2018-12-19T16:43:27.653Z,424.13
2018-12-19T16:45:55.323Z,613.97
2018-12-19T16:48:23.361Z,556.03
2018-12-19T16:50:51.013Z,721.53
2018-12-19T16:53:18.580Z,868.13
2018-12-19T16:55:46.135Z,508.00
2018-12-19T16:58:14.390Z,337.07
2018-12-19T17:00:41.945Z,346.50
2018-12-19T17:03:09.569Z,101.40
2018-12-19T17:05:37.194Z,96.57
2018-12-19T17:08:04.757Z,116.43
2018-12-19T17:10:32.313Z,133.60
2018-12-19T17:13:00.205Z,248.37
2018-12-19T17:15:27.777Z,265.93
2018-12-19T17:17:55.347Z,117.83
2018-12-19T17:20:23.197Z,207.67
2018-12-19T17:22:50.773Z,258.47
2018-12-19T17:25:18.404Z,165.93
2018-12-19T17:27:46.116Z,190.90
2018-12-19T17:30:13.810Z,164.53
2018-12-19T17:32:41.418Z,177.33
2018-12-19T17:35:09.219Z,194.80
2018-12-19T17:37:36.812Z,147.47
2018-12-19T17:40:04.488Z,118.10
2018-12-19T17:42:32.084Z,100.47
2018-12-19T17:44:59.667Z,73.97
2018-12-19T17:47:27.241Z,54.73
2018-12-19T17:49:55.162Z,54.13
2018-12-19T17:52:22.709Z,52.97
2018-12-19T17:54:50.263Z,51.60
2018-12-19T17:57:18.189Z,62.67
2018-12-19T17:59:45.769Z,53.57
2018-12-19T18:02:13.386Z,68.70
2018-12-19T18:04:41.090Z,61.00
2018-12-19T18:07:08.674Z,68.10
2018-12-19T18:09:36.232Z,87.00
2018-12-19T18:12:03.884Z,145.80
2018-12-19T18:14:31.434Z,163.33
2018-12-19T18:16:58.967Z,128.33
2018-12-19T18:19:26.522Z,84.30
2018-12-19T18:21:54.137Z,69.90
2018-12-19T18:24:22.065Z,68.77
2018-12-19T18:26:49.641Z,67.30
2018-12-19T18:29:17.267Z,83.27
2018-12-19T18:31:44.821Z,99.40
2018-12-19T18:34:12.505Z,163.07
2018-12-19T18:36:40.074Z,145.47
2018-12-19T18:39:07.689Z,91.70
2018-12-19T18:41:35.379Z,141.97
2018-12-19T18:44:03.009Z,185.03
2018-12-19T18:46:30.602Z,256.33
2018-12-19T18:48:58.294Z,237.97
2018-12-19T18:51:25.881Z,269.93
2018-12-19T18:53:53.453Z,259.00
2018-12-19T18:56:21.190Z,241.77
2018-12-19T18:58:48.761Z,159.83
2018-12-19T19:01:16.350Z,93.27
2018-12-19T19:03:44.091Z,80.20
2018-12-19T19:06:11.682Z,139.40
2018-12-19T19:08:39.273Z,146.40
2018-12-19T19:11:11.966Z,116.17
2018-12-19T19:13:39.585Z,82.07
2018-12-19T19:16:07.135Z,73.73
2018-12-19T19:18:34.893Z,80.33
2018-12-19T19:21:02.467Z,76.03
2018-12-19T19:23:30.076Z,74.50
2018-12-19T19:25:57.730Z,84.60
2018-12-19T19:28:25.321Z,74.40
2018-12-19T19:31:11.124Z,69.13
2018-12-19T19:33:38.710Z,60.93
2018-12-19T19:36:06.342Z,65.73
2018-12-19T19:38:34.042Z,48.70
2018-12-19T19:41:01.587Z,52.43
2018-12-19T19:43:29.147Z,47.33
2018-12-19T19:45:56.858Z,40.70
2018-12-19T19:48:24.429Z,49.77
2018-12-19T19:50:52.006Z,39.27
2018-12-19T19:53:19.609Z,41.33
2018-12-19T19:55:47.186Z,44.40
2018-12-19T19:58:14.752Z,36.83
2018-12-19T20:00:42.479Z,37.13
2018-12-19T20:03:10.071Z,38.47
2018-12-19T20:05:37.628Z,48.97
2018-12-19T20:08:05.281Z,48.17
2018-12-19T20:10:32.825Z,39.27
2018-12-19T20:13:00.380Z,35.20
2018-12-19T20:15:28.931Z,37.50
2018-12-19T20:17:56.504Z,37.53
2018-12-19T20:20:24.081Z,37.73
2018-12-19T20:22:52.143Z,32.50
2018-12-19T20:25:21.000Z,33.93
2018-12-19T20:27:47.322Z,34.53
2018-12-19T20:30:15.059Z,38.50
2018-12-19T20:32:42.621Z,36.07
2018-12-19T20:35:10.190Z,40.20
2018-12-19T20:37:38.006Z,38.43
2018-12-19T20:40:05.868Z,39.47
2018-12-19T20:42:33.441Z,38.77
2018-12-19T20:45:01.274Z,41.00
2018-12-19T20:47:28.856Z,35.90
2018-12-19T20:49:56.422Z,34.47
2018-12-19T20:52:24.024Z,39.50
2018-12-19T20:54:51.598Z,38.40
2018-12-19T20:57:19.186Z,43.13
2018-12-19T20:59:46.931Z,44.53
2018-12-19T21:02:14.529Z,38.37
2018-12-19T21:04:42.089Z,43.13
2018-12-19T21:07:09.779Z,41.10
2018-12-19T21:09:37.362Z,43.70
2018-12-19T21:12:05.046Z,40.40
2018-12-19T21:14:33.171Z,43.00
2018-12-19T21:17:05.881Z,46.00
2018-12-19T21:19:33.474Z,40.40
2018-12-19T21:22:01.034Z,38.97
2018-12-19T21:24:28.602Z,36.87
2018-12-19T21:26:56.440Z,43.03
2018-12-19T21:29:24.042Z,40.37
2018-12-19T21:31:51.646Z,38.07
2018-12-19T21:34:19.321Z,35.97
2018-12-19T21:36:46.895Z,32.63
2018-12-19T21:39:14.493Z,33.40
2018-12-19T21:41:42.129Z,35.63
2018-12-19T21:44:09.696Z,28.27
2018-12-19T21:46:37.306Z,30.57
2018-12-19T21:49:05.024Z,34.20
2018-12-19T21:51:32.665Z,30.67
2018-12-19T21:54:00.238Z,30.57
2018-12-19T21:56:28.103Z,33.73
2018-12-19T21:58:55.685Z,30.70
2018-12-19T22:01:23.314Z,31.13
2018-12-19T22:03:51.086Z,33.07
2018-12-19T22:06:18.650Z,31.50
2018-12-19T22:08:46.210Z,33.20
2018-12-19T22:11:13.858Z,32.80
2018-12-19T22:13:41.481Z,34.97
2018-12-19T22:16:09.096Z,36.27
2018-12-19T22:18:47.307Z,37.97
2018-12-19T22:21:15.827Z,31.87
2018-12-19T22:23:43.403Z,33.00
2018-12-19T22:26:11.098Z,33.37
2018-12-19T22:28:38.701Z,36.83
2018-12-19T22:31:06.288Z,35.83
2018-12-19T22:33:34.058Z,34.57
2018-12-19T22:36:01.699Z,34.80
2018-12-19T22:38:29.322Z,34.90
2018-12-19T22:40:57.046Z,33.77
2018-12-19T22:43:25.469Z,34.27
2018-12-19T22:45:53.035Z,27.60
2018-12-19T22:48:20.945Z,34.30
2018-12-19T22:50:48.613Z,31.77
2018-12-19T22:53:16.144Z,31.40
2018-12-19T22:55:43.819Z,30.23
2018-12-19T22:58:11.520Z,31.57
2018-12-19T23:00:44.814Z,28.30
2018-12-19T23:03:12.378Z,29.23
2018-12-19T23:05:45.771Z,30.33
2018-12-19T23:08:13.448Z,31.93
2018-12-19T23:10:40.964Z,31.83
2018-12-19T23:13:08.692Z,29.27
2018-12-19T23:15:36.371Z,29.20
2018-12-19T23:18:09.731Z,27.33
2018-12-19T23:20:37.341Z,30.33
2018-12-19T23:23:04.966Z,31.93
2018-12-19T23:25:32.679Z,29.83
2018-12-19T23:28:00.237Z,31.33
2018-12-19T23:30:27.897Z,31.77
2018-12-19T23:32:55.505Z,31.00
2018-12-19T23:35:23.079Z,34.37
2018-12-19T23:37:50.649Z,28.97
2018-12-19T23:40:18.498Z,29.23
2018-12-19T23:42:46.131Z,34.40
2018-12-19T23:45:13.722Z,32.13
2018-12-19T23:47:41.387Z,31.97
2018-12-19T23:50:08.993Z,41.07
2018-12-19T23:52:36.542Z,44.47
2018-12-19T23:55:04.583Z,39.80
2018-12-19T23:57:32.301Z,35.70
2018-12-19T23:59:59.747Z,36.67
